Time;durP1;ratioP1;P1;durP2;ratioP2;P2;SDS_P1;SDS_P2;PMS_P1;PMS_P2;Temp;Humidity;BMP_temperature;BMP_pressure;BME280_temperature;BME280_humidity;BME280_pressure;Samples;Min_cycle;Max_cycle;Signal;HPM_P1;HPM_P2
2022/01/16 00:04:11;;;;;;;287.58;68.55;;;;;;;3.13;99.90;102238.75;5034747;28;20044;-43
2022/01/16 00:06:38;;;;;;;280.95;66.00;;;;;;;3.16;99.71;102238.56;5029793;28;20137;-43
2022/01/16 00:09:04;;;;;;;276.63;66.43;;;;;;;3.18;100.00;102231.31;5014683;28;20053;-43
2022/01/16 00:11:30;;;;;;;299.88;69.88;;;;;;;3.21;100.00;102236.47;5014372;28;20304;-43
2022/01/16 00:13:56;;;;;;;317.48;68.45;;;;;;;3.21;100.00;102236.47;5014670;28;20420;-43
2022/01/16 00:16:22;;;;;;;326.73;72.22;;;;;;;3.19;100.00;102249.00;5014624;28;20113;-43
2022/01/16 00:18:50;;;;;;;308.58;70.43;;;;;;;3.22;100.00;102237.31;5014448;28;20034;-43
2022/01/16 00:21:17;;;;;;;332.08;69.70;;;;;;;3.22;100.00;102237.31;5030113;28;20043;-44
2022/01/16 00:23:42;;;;;;;339.02;71.40;;;;;;;3.24;100.00;102230.09;5034115;28;20104;-44
2022/01/16 00:26:08;;;;;;;327.40;69.55;;;;;;;3.29;100.00;102219.97;5034137;28;20076;-44
2022/01/16 00:28:33;;;;;;;345.55;72.70;;;;;;;3.32;100.00;102216.25;5026553;28;20030;-44
2022/01/16 00:30:59;;;;;;;347.05;71.47;;;;;;;3.32;100.00;102221.56;5014261;28;20034;-44
2022/01/16 00:33:24;;;;;;;367.50;74.10;;;;;;;3.35;100.00;102226.72;5014388;28;20018;-44
2022/01/16 00:35:49;;;;;;;359.00;76.32;;;;;;;3.35;100.00;102221.41;5014111;28;20037;-44
2022/01/16 00:38:15;;;;;;;369.00;74.88;;;;;;;3.39;100.00;102217.56;5017945;28;20029;-43
2022/01/16 00:40:41;;;;;;;376.27;75.95;;;;;;;3.41;100.00;102221.84;5033762;28;20021;-44
2022/01/16 00:43:06;;;;;;;369.85;71.38;;;;;;;3.40;100.00;102211.31;5016234;28;20034;-43
2022/01/16 00:45:35;;;;;;;371.10;75.13;;;;;;;3.44;100.00;102220.78;5014108;28;20049;-43
2022/01/16 00:48:02;;;;;;;364.52;70.47;;;;;;;3.47;100.00;102236.53;5012710;28;20501;-43
2022/01/16 00:50:27;;;;;;;360.17;68.63;;;;;;;3.52;100.00;102229.94;5013806;28;20025;-43
2022/01/16 00:52:53;;;;;;;352.65;69.35;;;;;;;3.52;100.00;102223.78;5029146;28;20034;-42
2022/01/16 00:55:18;;;;;;;355.38;70.57;;;;;;;3.55;100.00;102202.28;5013743;28;20053;-42
2022/01/16 00:57:43;;;;;;;384.65;74.25;;;;;;;3.53;100.00;102198.88;5027316;28;20041;-44
2022/01/16 01:00:09;;;;;;;354.95;73.13;;;;;;;3.53;100.00;102201.56;5026684;28;20026;-43
2022/01/16 01:02:35;;;;;;;356.27;71.80;;;;;;;3.51;100.00;102180.34;5013850;28;20443;-42
2022/01/16 01:05:00;;;;;;;360.13;72.90;;;;;;;3.50;100.00;102173.34;5013671;28;20157;-42
2022/01/16 01:07:25;;;;;;;340.67;71.25;;;;;;;3.55;100.00;102174.81;5012367;28;20061;-43
2022/01/16 01:09:51;;;;;;;334.55;69.45;;;;;;;3.53;100.00;102193.56;5013531;28;20120;-43
2022/01/16 01:15:11;;;;;;;346.20;69.75;;;;;;;3.60;100.00;102194.84;5007388;28;20540;-42
2022/01/16 01:17:44;;;;;;;339.83;71.63;;;;;;;3.59;100.00;102203.78;5012952;28;20030;-43
2022/01/16 01:20:14;;;;;;;325.25;70.80;;;;;;;3.61;100.00;102201.03;5015316;28;20113;-43
2022/01/16 01:22:39;;;;;;;321.95;70.57;;;;;;;3.63;100.00;102199.09;5023225;28;20116;-43
2022/01/16 01:25:05;;;;;;;306.63;69.65;;;;;;;3.60;100.00;102204.63;5013141;28;20434;-43
2022/01/16 01:27:33;;;;;;;302.90;67.03;;;;;;;3.60;100.00;102204.63;5013008;28;20021;-43
2022/01/16 01:30:03;;;;;;;305.17;67.45;;;;;;;3.63;100.00;102191.97;5013149;28;20095;-43
2022/01/16 01:32:30;;;;;;;313.77;66.60;;;;;;;3.61;100.00;102220.53;5013085;28;20129;-43
2022/01/16 01:34:55;;;;;;;296.45;69.72;;;;;;;3.63;100.00;102205.28;5024917;28;20022;-43
2022/01/16 01:37:20;;;;;;;303.98;69.13;;;;;;;3.62;100.00;102216.88;5032518;28;20112;-43
2022/01/16 01:39:46;;;;;;;278.52;66.32;;;;;;;3.62;100.00;102194.75;5032824;28;20049;-43
2022/01/16 01:42:12;;;;;;;301.65;67.10;;;;;;;3.59;100.00;102160.34;5018872;28;20038;-43
2022/01/16 01:52:54;;;;;;;276.35;66.03;;;;;;;3.57;100.00;102144.47;5012834;28;20049;-45
2022/01/16 01:55:20;;;;;;;272.27;66.95;;;;;;;3.56;100.00;102161.41;5012558;28;20033;-44
2022/01/16 01:57:45;;;;;;;267.17;66.95;;;;;;;3.58;100.00;102179.91;5013654;28;20014;-44
2022/01/16 02:00:17;;;;;;;261.88;68.57;;;;;;;3.54;100.00;102186.44;5024897;28;20045;-43
2022/01/16 02:05:31;;;;;;;249.98;67.40;;;;;;;3.52;100.00;102206.00;5011847;28;20445;-43
2022/01/16 02:07:57;;;;;;;259.92;68.93;;;;;;;3.52;100.00;102208.66;5012578;28;20109;-43
2022/01/16 02:10:23;;;;;;;251.73;65.10;;;;;;;3.55;100.00;102210.25;5023097;28;20528;-42
2022/01/16 02:12:54;;;;;;;252.45;67.40;;;;;;;3.55;100.00;102218.25;5032160;28;20037;-43
2022/01/16 02:34:34;;;;;;;224.90;65.32;;;;;;;3.50;100.00;102209.72;5012478;28;20034;-43
2022/01/16 02:37:04;;;;;;;225.05;66.40;;;;;;;3.50;100.00;102220.38;5012228;28;20053;-43
2022/01/16 02:39:31;;;;;;;214.43;66.03;;;;;;;3.50;100.00;102217.69;5012502;28;20029;-43
2022/01/16 02:41:59;;;;;;;221.68;66.63;;;;;;;3.48;100.00;102217.81;5028328;28;20103;-43
2022/01/16 02:46:55;;;;;;;215.85;62.63;;;;;;;3.53;100.00;102204.22;5013609;28;20030;-43
2022/01/16 02:49:32;;;;;;;207.10;64.00;;;;;;;3.54;99.97;102203.25;5012233;28;20029;-42
2022/01/16 02:52:05;;;;;;;197.52;63.65;;;;;;;3.54;100.00;102194.41;5027219;28;20030;-42
2022/01/16 02:54:35;;;;;;;183.20;59.78;;;;;;;3.53;99.83;102188.25;5015816;28;20046;-44
2022/01/16 02:57:01;;;;;;;201.82;61.88;;;;;;;3.52;100.00;102189.19;5016105;28;20106;-43
2022/01/16 02:59:26;;;;;;;189.90;61.50;;;;;;;3.50;99.45;102191.97;5016021;28;20026;-43
2022/01/16 03:01:52;;;;;;;187.45;59.42;;;;;;;3.51;99.71;102187.47;5019879;28;20032;-42
2022/01/16 03:04:18;;;;;;;201.95;61.63;;;;;;;3.49;99.93;102179.59;5035737;28;20397;-44
2022/01/16 03:06:43;;;;;;;188.45;59.47;;;;;;;3.49;99.52;102168.94;5022576;28;20034;-44
2022/01/16 03:09:10;;;;;;;186.93;58.67;;;;;;;3.48;99.35;102161.06;5015898;28;20022;-43
2022/01/16 03:11:39;;;;;;;180.50;57.50;;;;;;;3.49;99.77;102160.97;5026824;28;20057;-43
2022/01/16 03:14:09;;;;;;;192.63;58.45;;;;;;;3.49;99.91;102165.44;5015634;28;20030;-43
2022/01/16 03:16:35;;;;;;;176.32;56.85;;;;;;;3.47;99.54;102154.03;5017204;28;20037;-44
2022/01/16 03:22:02;;;;;;;169.20;55.70;;;;;;;3.53;100.00;102143.00;5035440;28;20527;-43
2022/01/16 03:24:32;;;;;;;174.88;56.20;;;;;;;3.55;99.62;102149.03;5035376;28;20025;-43
2022/01/16 03:27:00;;;;;;;143.80;47.70;;;;;;;3.60;99.59;102141.59;5035272;28;20044;-42
2022/01/16 03:29:26;;;;;;;103.75;38.72;;;;;;;3.73;99.31;102146.94;5017303;28;20061;-43
2022/01/16 03:31:52;;;;;;;114.43;38.58;;;;;;;3.80;99.17;102142.91;5026995;28;20503;-42
2022/01/16 03:34:18;;;;;;;88.78;34.22;;;;;;;3.93;98.65;102132.25;5028997;28;20034;-43
2022/01/16 03:36:43;;;;;;;90.03;30.70;;;;;;;4.05;97.96;102139.38;5015133;28;20032;-43
2022/01/16 03:39:09;;;;;;;77.53;29.77;;;;;;;4.18;98.01;102142.88;5015012;28;20017;-44
2022/01/16 03:41:34;;;;;;;69.38;27.80;;;;;;;4.30;96.64;102137.66;5023872;28;20045;-44
2022/01/16 03:44:03;;;;;;;56.20;23.77;;;;;;;4.39;96.34;102128.97;5015032;28;20026;-43
2022/01/16 03:46:34;;;;;;;58.13;23.55;;;;;;;4.46;95.87;102130.25;5015170;28;20057;-43
2022/01/16 03:49:01;;;;;;;60.80;24.33;;;;;;;4.52;95.44;102137.81;5014907;28;20446;-44
2022/01/16 03:51:27;;;;;;;63.20;24.02;;;;;;;4.57;95.09;102133.00;5014719;28;20030;-43
2022/01/16 03:53:52;;;;;;;57.00;21.38;;;;;;;4.65;94.83;102134.25;5014986;28;20026;-43
2022/01/16 03:56:17;;;;;;;46.60;20.85;;;;;;;4.71;94.70;102133.78;5023906;28;20103;-43
2022/01/16 03:58:43;;;;;;;49.58;20.80;;;;;;;4.77;94.35;102128.88;5034506;28;20029;-45
2022/01/16 04:01:08;;;;;;;58.72;22.13;;;;;;;4.78;94.12;102129.72;5024768;28;20486;-43
2022/01/16 04:03:33;;;;;;;52.95;20.90;;;;;;;4.81;94.10;102127.69;5014472;28;20044;-44
2022/01/16 04:05:59;;;;;;;66.78;22.45;;;;;;;4.84;94.13;102139.94;5014462;28;20101;-42
2022/01/16 04:08:24;;;;;;;58.72;20.73;;;;;;;4.85;94.07;102125.66;5014609;28;20053;-42
2022/01/16 04:10:49;;;;;;;53.13;19.48;;;;;;;4.89;94.43;102127.13;5021442;28;20045;-42
2022/01/16 04:13:19;;;;;;;55.47;20.35;;;;;;;4.93;94.27;102128.59;5014322;28;20018;-42
2022/01/16 04:15:44;;;;;;;52.53;17.92;;;;;;;4.97;94.33;102132.72;5014700;28;20445;-42
2022/01/16 04:18:10;;;;;;;55.45;18.48;;;;;;;5.00;94.51;102127.19;5014316;28;20088;-43
2022/01/16 04:20:35;;;;;;;50.40;17.40;;;;;;;5.06;94.30;102128.53;5012947;28;20482;-43
2022/01/16 04:23:01;;;;;;;51.67;17.17;;;;;;;5.08;93.93;102126.59;5014379;28;20474;-45
2022/01/16 04:25:26;;;;;;;42.88;15.70;;;;;;;5.14;93.43;102135.97;5015447;28;20025;-43
2022/01/16 04:27:51;;;;;;;44.10;13.88;;;;;;;5.19;93.06;102134.66;5033648;28;20021;-43
2022/01/16 04:30:17;;;;;;;42.05;13.70;;;;;;;5.24;92.10;102131.66;5031406;28;20032;-43
2022/01/16 04:32:42;;;;;;;42.30;11.60;;;;;;;5.31;91.49;102138.22;5014338;28;20026;-43
2022/01/16 04:35:08;;;;;;;36.40;10.73;;;;;;;5.38;90.21;102128.78;5029319;28;20029;-44
2022/01/16 04:37:33;;;;;;;38.90;10.43;;;;;;;5.41;89.40;102123.22;5034151;28;20037;-44
2022/01/16 04:40:01;;;;;;;36.45;10.60;;;;;;;5.47;88.29;102137.91;5032172;28;20483;-45
2022/01/16 04:45:12;;;;;;;31.05;9.40;;;;;;;5.57;87.58;102132.72;5032899;28;20041;-43
2022/01/16 04:47:37;;;;;;;30.05;8.90;;;;;;;5.61;86.73;102126.16;5033790;28;20021;-43
2022/01/16 04:50:03;;;;;;;28.50;9.43;;;;;;;5.63;86.74;102118.88;5028080;28;20113;-42
2022/01/16 04:52:28;;;;;;;32.17;9.10;;;;;;;5.64;86.75;102128.63;5013829;28;20061;-43
2022/01/16 04:54:53;;;;;;;33.97;8.52;;;;;;;5.67;86.68;102128.38;5013624;28;20104;-44
2022/01/16 04:57:19;;;;;;;34.03;9.43;;;;;;;5.71;86.57;102124.47;5013515;28;20057;-43
2022/01/16 04:59:44;;;;;;;28.58;8.63;;;;;;;5.73;86.50;102126.06;5013454;28;20098;-43
2022/01/16 05:02:10;;;;;;;23.40;9.07;;;;;;;5.74;86.53;102121.59;5030666;28;20033;-44
2022/01/16 05:04:35;;;;;;;39.20;8.50;;;;;;;5.75;86.46;102120.63;5014365;28;20033;-43
2022/01/16 05:07:00;;;;;;;44.80;8.77;;;;;;;5.80;85.81;102128.28;5013396;28;20026;-42
2022/01/16 05:09:26;;;;;;;25.52;8.00;;;;;;;5.85;85.37;102126.09;5012575;28;20021;-44
2022/01/16 05:11:55;;;;;;;25.58;8.00;;;;;;;5.88;84.84;102128.53;5013494;28;20140;-43
2022/01/16 05:17:04;;;;;;;27.08;7.35;;;;;;;5.86;83.80;102125.97;5012926;28;20037;-44
2022/01/16 05:19:30;;;;;;;19.13;6.25;;;;;;;5.89;83.05;102128.41;5011799;28;20037;-43
2022/01/16 05:21:55;;;;;;;26.58;6.60;;;;;;;5.91;82.52;102125.63;5014523;28;20478;-43
2022/01/16 05:24:23;;;;;;;22.63;5.80;;;;;;;5.92;82.64;102121.97;5016198;28;20033;-43
2022/01/16 05:26:48;;;;;;;21.42;5.93;;;;;;;5.93;81.89;102111.19;5016266;28;20091;-44
2022/01/16 05:29:13;;;;;;;19.05;5.45;;;;;;;5.93;81.71;102121.88;5030718;28;20034;-43
2022/01/16 05:31:44;;;;;;;23.60;6.05;;;;;;;5.97;81.46;102116.28;5019300;28;20030;-44
2022/01/16 05:34:11;;;;;;;21.95;5.40;;;;;;;6.02;80.50;102127.47;5026599;28;20033;-43
2022/01/16 05:36:37;;;;;;;18.65;5.32;;;;;;;6.01;79.26;102128.47;5030072;28;20033;-43
2022/01/16 05:39:02;;;;;;;25.63;4.78;;;;;;;6.10;77.47;102135.75;5031114;28;20481;-43
2022/01/16 05:41:27;;;;;;;16.88;4.50;;;;;;;6.10;75.97;102133.91;5032430;28;20067;-43
2022/01/16 05:43:53;;;;;;;11.38;4.10;;;;;;;6.10;74.60;102144.59;5032750;28;20031;-43
2022/01/16 05:46:18;;;;;;;11.40;3.80;;;;;;;6.12;73.76;102141.81;5032917;28;20029;-44
2022/01/16 05:48:43;;;;;;;13.15;3.50;;;;;;;6.12;71.18;102134.66;5036611;28;20048;-43
2022/01/16 05:51:09;;;;;;;9.73;3.70;;;;;;;6.16;70.16;102135.25;5049163;28;20044;-44
2022/01/16 05:53:35;;;;;;;9.80;3.90;;;;;;;6.18;70.46;102144.00;5032436;28;20470;-43
2022/01/16 05:56:00;;;;;;;11.00;3.85;;;;;;;6.24;69.09;102142.66;5032724;28;20038;-43
2022/01/16 05:58:25;;;;;;;13.60;4.05;;;;;;;6.21;69.66;102143.75;5030648;28;20108;-43
2022/01/16 06:00:51;;;;;;;12.88;4.55;;;;;;;6.21;69.81;102143.75;5029127;28;20481;-43
2022/01/16 06:03:16;;;;;;;17.20;4.78;;;;;;;6.22;70.63;102137.44;5028719;28;20029;-42
2022/01/16 06:05:41;;;;;;;8.80;4.80;;;;;;;6.21;70.79;102133.06;5029501;28;20025;-43
2022/01/16 06:08:10;;;;;;;17.98;5.32;;;;;;;6.23;71.84;102146.31;5029377;28;20030;-45
2022/01/16 06:10:36;;;;;;;18.02;6.15;;;;;;;6.20;72.28;102130.53;5029021;28;20049;-45
2022/01/16 06:13:07;;;;;;;11.02;5.55;;;;;;;6.21;72.66;102135.72;5027742;28;20179;-43
2022/01/16 06:15:33;;;;;;;20.75;5.65;;;;;;;6.19;73.70;102140.38;5029259;28;20025;-43
2022/01/16 06:18:00;;;;;;;17.90;7.05;;;;;;;6.19;74.46;102142.16;5029191;28;20030;-41
2022/01/16 06:20:26;;;;;;;19.42;6.82;;;;;;;6.18;74.92;102140.47;5029150;28;20393;-42
2022/01/16 06:22:53;;;;;;;18.05;5.97;;;;;;;6.18;75.59;102154.69;5028979;28;20035;-42
2022/01/16 06:25:18;;;;;;;37.17;7.13;;;;;;;6.18;75.28;102153.84;5029208;28;20017;-43
2022/01/16 06:27:44;;;;;;;18.15;6.57;;;;;;;6.18;74.51;102138.66;5031836;28;20491;-42
2022/01/16 06:30:10;;;;;;;16.65;6.50;;;;;;;6.18;73.71;102149.34;5032957;28;20056;-42
2022/01/16 06:32:36;;;;;;;20.98;7.68;;;;;;;6.21;74.01;102156.28;5032900;28;20087;-42
2022/01/16 06:35:02;;;;;;;21.65;6.82;;;;;;;6.19;74.84;102155.53;5035470;28;20436;-42
2022/01/16 06:37:27;;;;;;;23.13;7.93;;;;;;;6.18;75.25;102153.84;5033145;28;20044;-43
2022/01/16 06:39:53;;;;;;;20.30;7.53;;;;;;;6.22;74.91;102158.84;5026760;28;20481;-43
2022/01/16 06:42:18;;;;;;;21.73;7.82;;;;;;;6.20;75.34;102165.28;5029377;28;20052;-42
2022/01/16 06:44:43;;;;;;;15.13;6.93;;;;;;;6.18;74.79;102168.06;5052765;28;20323;-43
2022/01/16 06:47:09;;;;;;;26.30;6.85;;;;;;;6.20;74.30;102173.28;5038480;28;20025;-43
2022/01/16 06:49:34;;;;;;;25.95;6.60;;;;;;;6.18;74.52;102162.72;5032734;28;20033;-44
2022/01/16 06:51:59;;;;;;;19.48;6.75;;;;;;;6.23;74.72;102178.41;5032701;28;20033;-45
2022/01/16 06:54:25;;;;;;;23.02;8.15;;;;;;;6.24;75.06;102180.97;5032712;28;20059;-43
2022/01/16 06:56:50;;;;;;;19.92;7.28;;;;;;;6.26;75.02;102194.19;5032775;28;20103;-45
2022/01/16 06:59:15;;;;;;;25.52;7.80;;;;;;;6.24;75.00;102193.44;5032247;28;20029;-41
2022/01/16 07:01:40;;;;;;;19.98;7.18;;;;;;;6.25;74.98;102198.69;5029840;28;20112;-43
2022/01/16 07:04:06;;;;;;;26.48;7.90;;;;;;;6.27;74.99;102196.75;5030367;28;20053;-42
2022/01/16 07:06:31;;;;;;;23.33;7.70;;;;;;;6.29;75.25;102193.94;5039551;28;20151;-43
2022/01/16 07:08:56;;;;;;;24.02;7.78;;;;;;;6.28;75.58;102202.94;5035902;28;20357;-43
2022/01/16 07:11:22;;;;;;;18.58;6.97;;;;;;;6.33;76.13;102214.97;5030564;28;20077;-43
2022/01/16 07:13:47;;;;;;;17.95;8.40;;;;;;;6.34;76.78;102208.66;5031003;28;20037;-43
2022/01/16 07:16:12;;;;;;;19.60;7.82;;;;;;;6.36;77.37;102222.75;5013994;28;20034;-43
2022/01/16 07:18:38;;;;;;;22.63;8.30;;;;;;;6.34;77.71;102216.66;5021528;28;20120;-44
2022/01/16 07:21:05;;;;;;;26.25;8.73;;;;;;;6.36;78.09;102232.59;5032023;28;20036;-43
2022/01/16 07:23:30;;;;;;;24.13;8.13;;;;;;;6.33;78.54;102233.69;5032433;28;20018;-43
2022/01/16 07:25:56;;;;;;;31.90;8.85;;;;;;;6.35;80.46;102237.09;5032347;28;20025;-43
2022/01/16 07:28:21;;;;;;;33.53;8.75;;;;;;;6.33;81.44;102241.72;5032298;28;20076;-43
2022/01/16 07:30:47;;;;;;;28.02;9.23;;;;;;;6.32;81.92;102250.72;5038912;28;20128;-44
2022/01/16 07:33:12;;;;;;;37.10;10.50;;;;;;;6.30;82.93;102239.28;5032182;28;20037;-44
2022/01/16 07:35:38;;;;;;;31.75;10.55;;;;;;;6.29;83.17;102242.94;5032041;28;20040;-43
2022/01/16 07:38:05;;;;;;;30.40;9.65;;;;;;;6.28;84.05;102251.91;5031966;28;20035;-43
2022/01/16 07:40:31;;;;;;;44.78;9.80;;;;;;;6.27;84.28;102260.91;5031666;28;20030;-43
2022/01/16 07:42:59;;;;;;;34.13;10.50;;;;;;;6.26;84.70;102253.00;5031756;28;20600;-44
2022/01/16 07:45:24;;;;;;;38.50;11.07;;;;;;;6.27;85.31;102252.91;5031043;28;20107;-44
2022/01/16 07:47:49;;;;;;;39.60;11.07;;;;;;;6.24;85.67;102250.47;5030504;28;20033;-43
2022/01/16 07:50:16;;;;;;;41.05;12.00;;;;;;;6.25;85.86;102254.00;5031629;28;20033;-44
2022/01/16 07:52:41;;;;;;;37.47;10.55;;;;;;;6.24;85.99;102258.50;5032030;28;20036;-44
2022/01/16 07:55:07;;;;;;;35.25;10.93;;;;;;;6.24;86.42;102269.19;5031412;28;20041;-43
2022/01/16 07:57:32;;;;;;;48.20;12.18;;;;;;;6.27;86.90;102286.81;5031222;28;20491;-43
2022/01/16 07:59:57;;;;;;;43.83;12.50;;;;;;;6.24;87.04;102287.91;5030939;28;20028;-43
2022/01/16 08:02:23;;;;;;;43.20;11.63;;;;;;;6.24;86.73;102277.22;5031442;28;20028;-43
2022/01/16 08:04:48;;;;;;;37.58;11.52;;;;;;;6.25;87.44;102278.91;5031231;28;20452;-43
2022/01/16 08:07:14;;;;;;;49.33;10.75;;;;;;;6.27;87.24;102282.31;5030717;28;20041;-45
2022/01/16 08:09:39;;;;;;;38.08;10.73;;;;;;;6.29;87.33;102272.34;5031573;28;20075;-44
2022/01/16 08:12:05;;;;;;;37.45;11.95;;;;;;;6.28;87.53;102281.31;5030943;28;20053;-44
2022/01/16 08:14:31;;;;;;;34.20;10.65;;;;;;;6.30;87.42;102266.03;5029230;28;20045;-44
2022/01/16 08:16:56;;;;;;;40.63;12.30;;;;;;;6.30;87.68;102265.19;5031140;28;20094;-43
2022/01/16 08:19:25;;;;;;;38.58;11.65;;;;;;;6.31;87.70;102262.38;5031214;28;20100;-43
2022/01/16 08:21:50;;;;;;;44.53;11.70;;;;;;;6.31;87.53;102265.03;5031316;28;20449;-43
2022/01/16 08:24:16;;;;;;;43.95;10.93;;;;;;;6.31;87.39;102259.69;5030871;28;20128;-43
2022/01/16 08:26:41;;;;;;;40.63;11.27;;;;;;;6.29;87.72;102259.00;5030933;28;20056;-45
2022/01/16 08:29:07;;;;;;;35.83;11.50;;;;;;;6.30;88.02;102254.50;5031111;28;20108;-43
2022/01/16 08:31:32;;;;;;;38.65;11.32;;;;;;;6.31;87.43;102249.00;5029754;28;20040;-43
2022/01/16 08:33:57;;;;;;;48.75;12.48;;;;;;;6.35;87.61;102252.31;5030753;28;20025;-43
2022/01/16 08:36:23;;;;;;;34.13;12.45;;;;;;;6.31;87.91;102257.03;5030756;28;20547;-44
2022/01/16 08:38:48;;;;;;;44.67;11.73;;;;;;;6.29;88.22;102248.28;5030812;28;20049;-43
2022/01/16 08:41:14;;;;;;;40.15;11.60;;;;;;;6.30;88.32;102258.00;5030684;28;20033;-43
2022/01/16 08:43:39;;;;;;;42.53;12.63;;;;;;;6.30;88.33;102265.19;5029129;28;20109;-43
2022/01/16 08:46:04;;;;;;;37.42;12.45;;;;;;;6.30;88.46;102260.69;5030567;28;20090;-42
2022/01/16 08:48:30;;;;;;;39.88;12.65;;;;;;;6.31;88.57;102254.34;5030603;28;20018;-42
2022/01/16 08:50:55;;;;;;;43.92;12.80;;;;;;;6.34;88.33;102261.28;5028355;28;20038;-43
2022/01/16 08:53:21;;;;;;;37.45;13.30;;;;;;;6.36;88.23;102270.03;5030566;28;20026;-44
2022/01/16 08:55:46;;;;;;;42.83;13.50;;;;;;;6.37;88.02;102277.09;5025947;28;20041;-43
2022/01/16 08:58:11;;;;;;;42.15;13.68;;;;;;;6.38;87.98;102282.31;5028553;28;20466;-43
2022/01/16 09:00:37;;;;;;;55.03;15.45;;;;;;;6.38;88.22;102295.69;5026631;28;20057;-42
2022/01/16 09:03:02;;;;;;;70.22;19.25;;;;;;;6.32;88.22;102301.53;5023865;28;20029;-43
2022/01/16 09:05:28;;;;;;;56.33;17.88;;;;;;;6.29;88.67;102298.22;5019611;28;20562;-43
2022/01/16 09:07:53;;;;;;;70.50;20.55;;;;;;;6.25;88.66;102294.94;5021894;28;20033;-43
2022/01/16 09:10:19;;;;;;;60.55;18.75;;;;;;;6.23;88.90;102302.22;5012247;28;20046;-43
2022/01/16 09:12:44;;;;;;;74.03;20.08;;;;;;;6.21;88.97;102296.13;5027858;28;20037;-43
2022/01/16 09:15:11;;;;;;;81.07;20.65;;;;;;;6.20;89.23;102288.25;5032620;28;20067;-43
2022/01/16 09:17:37;;;;;;;73.47;21.83;;;;;;;6.20;89.27;102299.78;5033162;28;20091;-44
2022/01/16 09:20:05;;;;;;;76.40;22.48;;;;;;;6.17;89.49;102302.69;5033305;28;20052;-43
2022/01/16 09:22:30;;;;;;;79.72;24.75;;;;;;;6.21;89.42;102306.81;5033380;28;20051;-43
2022/01/16 09:24:55;;;;;;;85.80;28.02;;;;;;;6.22;89.45;102305.88;5031726;28;20033;-43
2022/01/16 09:27:21;;;;;;;111.15;32.00;;;;;;;6.16;89.57;102319.69;5032460;28;20127;-43
2022/01/16 09:29:46;;;;;;;113.00;32.85;;;;;;;6.04;90.04;102321.50;5031830;28;20041;-43
2022/01/16 09:32:16;;;;;;;126.00;34.72;;;;;;;5.98;90.68;102318.41;5013207;28;20025;-45
2022/01/16 09:34:42;;;;;;;123.38;34.72;;;;;;;5.91;91.31;102324.19;5013561;28;20037;-45
2022/01/16 09:37:09;;;;;;;127.38;35.40;;;;;;;5.93;91.35;102329.44;5032624;28;20539;-45
2022/01/16 09:39:39;;;;;;;123.68;37.47;;;;;;;5.88;91.57;102328.94;5032572;28;20503;-42
2022/01/16 09:42:06;;;;;;;111.72;35.35;;;;;;;5.89;91.50;102334.13;5013731;28;20474;-43
2022/01/16 09:44:33;;;;;;;131.77;36.70;;;;;;;5.84;91.85;102338.97;5030504;28;20017;-43
2022/01/16 09:46:59;;;;;;;133.07;37.63;;;;;;;5.77;92.12;102332.41;5032406;28;20112;-44
2022/01/16 09:49:25;;;;;;;128.07;36.30;;;;;;;5.84;92.12;102344.31;5030944;28;20120;-42
2022/01/16 09:51:51;;;;;;;134.23;37.60;;;;;;;5.81;92.00;102341.03;5031458;28;20478;-44
2022/01/16 09:54:17;;;;;;;139.68;40.42;;;;;;;5.76;92.48;102341.38;5032421;28;20056;-45
2022/01/16 09:56:43;;;;;;;143.60;40.28;;;;;;;5.66;92.83;102351.03;5031271;28;20028;-43
2022/01/16 09:59:08;;;;;;;139.13;41.15;;;;;;;5.56;93.01;102350.03;5032247;28;20397;-44
2022/01/16 10:01:33;;;;;;;153.60;40.35;;;;;;;5.55;93.31;102350.97;5028502;28;20052;-43
2022/01/16 10:03:59;;;;;;;150.23;40.83;;;;;;;5.52;93.60;102354.72;5019598;28;20442;-43
2022/01/16 10:06:24;;;;;;;164.38;42.13;;;;;;;5.50;93.94;102353.97;5024308;28;20038;-42
2022/01/16 10:08:52;;;;;;;143.52;41.58;;;;;;;5.50;94.10;102359.31;5032589;28;20029;-43
2022/01/16 10:11:24;;;;;;;161.13;42.80;;;;;;;5.50;94.23;102357.50;5031263;28;20052;-43
2022/01/16 10:14:01;;;;;;;158.45;42.75;;;;;;;5.50;94.23;102362.84;5032381;28;20068;-43
2022/01/16 10:16:28;;;;;;;170.65;44.38;;;;;;;5.47;94.64;102373.72;5030922;28;20115;-42
2022/01/16 10:18:54;;;;;;;164.90;43.55;;;;;;;5.50;94.65;102368.19;5031169;28;20033;-42
2022/01/16 10:21:39;;;;;;;183.25;45.42;;;;;;;5.52;94.66;102370.72;5032180;28;20193;-44
2022/01/16 10:24:28;;;;;;;169.55;44.28;;;;;;;5.51;94.73;102371.72;5032043;28;20129;-44
2022/01/16 10:27:08;;;;;;;174.27;45.00;;;;;;;5.56;94.87;102382.91;5032419;28;20362;-43
2022/01/16 10:29:44;;;;;;;160.05;42.55;;;;;;;5.61;95.03;102377.22;5032120;28;20033;-43
2022/01/16 10:32:31;;;;;;;170.30;44.00;;;;;;;5.67;94.88;102380.31;5032052;28;20055;-43
2022/01/16 10:35:08;;;;;;;177.55;43.28;;;;;;;5.71;95.03;102376.47;5032165;28;20030;-43
2022/01/16 10:37:34;;;;;;;163.95;43.45;;;;;;;5.74;94.98;102367.38;5031928;28;20064;-43
2022/01/16 10:40:06;;;;;;;175.93;45.42;;;;;;;5.76;94.78;102372.56;5031978;28;20150;-44
2022/01/16 10:42:32;;;;;;;168.68;44.80;;;;;;;5.78;94.96;102374.16;5031844;28;20041;-43
2022/01/16 10:45:05;;;;;;;170.65;42.88;;;;;;;5.82;95.05;102370.31;5031908;28;20466;-44
2022/01/16 10:47:39;;;;;;;173.07;43.75;;;;;;;5.87;94.93;102368.16;5031747;28;20497;-43
2022/01/16 10:50:09;;;;;;;166.15;43.42;;;;;;;5.88;94.83;102355.66;5031914;28;20033;-43
2022/01/16 10:53:13;;;;;;;161.68;42.33;;;;;;;5.90;94.40;102365.25;5031842;28;20037;-43
2022/01/16 10:55:47;;;;;;;155.23;41.45;;;;;;;5.96;94.41;102358.63;5031586;28;20067;-43
2022/01/16 10:58:19;;;;;;;168.20;42.63;;;;;;;6.00;94.44;102359.25;5032168;28;20132;-43
2022/01/16 11:01:03;;;;;;;160.07;42.80;;;;;;;6.07;94.42;102355.16;5032095;28;20029;-44
2022/01/16 11:03:37;;;;;;;169.77;43.55;;;;;;;6.15;94.40;102374.13;5031619;28;20061;-44
2022/01/16 11:06:02;;;;;;;170.02;41.65;;;;;;;6.20;93.75;102373.78;5028309;28;20040;-43
2022/01/16 11:08:28;;;;;;;163.65;43.47;;;;;;;6.29;93.72;102365.94;5031699;28;20025;-44
2022/01/16 11:10:56;;;;;;;144.48;41.05;;;;;;;6.42;93.12;102359.63;5031740;28;20037;-45
2022/01/16 11:13:22;;;;;;;;;;;;;;;6.60;92.19;102367.09;5032474;28;20122;-43
2022/01/16 11:15:53;;;;;;;137.07;34.88;;;;;;;6.63;91.41;102379.38;5035459;28;19915;-43
2022/01/16 11:18:20;;;;;;;127.47;35.03;;;;;;;6.96;91.60;102375.91;5019835;28;20030;-44
2022/01/16 11:20:56;;;;;;;115.07;31.75;;;;;;;7.55;88.82;102382.81;5023481;28;20026;-44
2022/01/16 11:23:33;;;;;;;96.10;27.80;;;;;;;7.97;85.36;102379.41;5035538;28;20581;-44
2022/01/16 11:26:04;;;;;;;101.10;28.17;;;;;;;8.06;83.80;102376.84;5014681;28;20053;-45
2022/01/16 11:28:29;;;;;;;81.85;25.55;;;;;;;7.83;83.98;102391.28;5031994;28;20044;-44
2022/01/16 11:30:57;;;;;;;78.93;22.73;;;;;;;7.55;83.89;102384.63;5034916;28;20025;-43
2022/01/16 11:33:24;;;;;;;76.93;23.20;;;;;;;7.39;84.13;102372.47;5035261;28;20029;-43
2022/01/16 11:35:58;;;;;;;80.03;21.30;;;;;;;7.40;84.01;102362.63;5034890;28;20017;-44
2022/01/16 11:38:31;;;;;;;82.07;21.45;;;;;;;7.41;84.49;102370.53;5018963;28;20124;-43
2022/01/16 11:41:02;;;;;;;73.65;18.55;;;;;;;7.35;83.86;102364.84;5040439;28;20061;-44
2022/01/16 11:43:37;;;;;;;66.78;18.60;;;;;;;7.35;83.50;102364.84;5012047;28;20037;-44
2022/01/16 11:46:12;;;;;;;65.57;17.05;;;;;;;7.29;83.37;102376.03;5019941;28;20037;-42
2022/01/16 11:48:47;;;;;;;59.60;17.55;;;;;;;7.30;83.50;102359.00;5031847;28;20029;-44
2022/01/16 11:51:35;;;;;;;61.92;15.77;;;;;;;7.36;83.10;102355.81;5031582;28;20489;-43
2022/01/16 11:54:23;;;;;;;50.47;15.20;;;;;;;7.36;82.84;102362.00;5031935;28;20079;-44
2022/01/16 11:56:54;;;;;;;51.33;12.65;;;;;;;7.42;82.95;102371.38;5031665;28;20029;-44
2022/01/16 11:59:30;;;;;;;38.00;10.27;;;;;;;7.42;81.75;102382.09;5031646;28;20500;-45
2022/01/16 12:02:07;;;;;;;30.30;9.45;;;;;;;7.40;81.33;102373.34;5031443;28;20033;-42